createdAt,value
2022-10-19T00:01:12.648Z,18.25
2022-10-19T00:06:17.348Z,17.25
2022-10-19T00:11:18.918Z,16.85
2022-10-19T00:16:21.535Z,17.25
2022-10-19T00:21:23.045Z,18.67
2022-10-19T00:26:26.183Z,14.90
2022-10-19T00:31:28.088Z,15.35
2022-10-19T00:36:34.887Z,13.88
2022-10-19T00:41:37.461Z,15.57
2022-10-19T00:46:40.871Z,15.50
2022-10-19T00:51:45.410Z,13.93
2022-10-19T00:56:48.936Z,13.15
2022-10-19T01:01:50.861Z,15.13
2022-10-19T01:06:53.829Z,13.50
2022-10-19T01:12:06.463Z,14.70
2022-10-19T01:17:18.433Z,13.82
2022-10-19T01:22:44.666Z,13.50
2022-10-19T01:28:06.354Z,15.45
2022-10-19T01:33:29.271Z,13.77
2022-10-19T01:38:58.619Z,16.25
2022-10-19T01:44:16.756Z,13.65
2022-10-19T01:49:25.439Z,13.65
2022-10-19T01:54:30.602Z,12.38
2022-10-19T01:59:33.114Z,13.60
2022-10-19T02:04:35.213Z,15.20
2022-10-19T02:09:36.847Z,12.25
2022-10-19T02:14:44.494Z,12.77
2022-10-19T02:19:45.972Z,13.73
2022-10-19T02:24:47.479Z,12.77
2022-10-19T02:29:49.075Z,13.63
2022-10-19T02:34:50.594Z,12.52
2022-10-19T02:39:52.139Z,12.05
2022-10-19T02:44:58.669Z,11.13
2022-10-19T02:50:00.390Z,11.23
2022-10-19T02:55:01.964Z,13.50
2022-10-19T03:00:06.177Z,12.05
2022-10-19T03:05:08.826Z,10.07
2022-10-19T03:10:10.380Z,9.77
2022-10-19T03:15:15.807Z,8.40
2022-10-19T03:20:17.382Z,11.02
2022-10-19T03:25:19.027Z,10.70
2022-10-19T03:30:20.494Z,9.60
2022-10-19T03:35:21.973Z,9.90
2022-10-19T03:40:23.453Z,10.48
2022-10-19T03:45:24.964Z,9.40
2022-10-19T03:50:26.495Z,10.35
2022-10-19T03:55:27.992Z,10.02
2022-10-19T04:00:29.498Z,11.68
2022-10-19T04:05:31.001Z,9.90
2022-10-19T04:10:32.548Z,11.15
2022-10-19T04:15:34.057Z,11.45
2022-10-19T04:20:35.552Z,11.80
2022-10-19T04:25:37.067Z,11.65
2022-10-19T04:30:38.558Z,14.93
2022-10-19T04:35:40.063Z,13.70
2022-10-19T04:40:41.549Z,14.45
2022-10-19T04:45:43.054Z,10.20
2022-10-19T04:50:44.541Z,11.45
2022-10-19T04:55:54.609Z,10.68
2022-10-19T05:00:56.120Z,9.65
2022-10-19T05:05:59.180Z,12.30
2022-10-19T05:11:07.440Z,12.02
2022-10-19T05:16:12.317Z,12.60
2022-10-19T05:21:14.980Z,12.50
2022-10-19T05:26:18.525Z,9.68
2022-10-19T05:31:20.716Z,11.55
2022-10-19T05:36:27.406Z,15.52
2022-10-19T05:41:29.164Z,13.65
2022-10-19T05:46:31.332Z,13.25
2022-10-19T05:51:33.037Z,12.90
2022-10-19T05:56:34.688Z,13.77
2022-10-19T06:01:37.002Z,17.27
2022-10-19T06:06:38.531Z,11.85
2022-10-19T06:11:41.393Z,13.48
2022-10-19T06:16:42.925Z,11.73
2022-10-19T06:21:45.935Z,11.52
2022-10-19T06:26:47.727Z,11.30
2022-10-19T06:31:49.363Z,12.55
2022-10-19T06:36:50.862Z,10.13
2022-10-19T06:41:52.415Z,12.55
2022-10-19T06:46:53.935Z,13.05
2022-10-19T06:51:55.533Z,8.30
2022-10-19T06:56:57.088Z,12.85
2022-10-19T07:01:58.573Z,12.80
2022-10-19T07:07:00.061Z,11.02
2022-10-19T07:12:01.585Z,9.85
2022-10-19T07:17:03.117Z,10.00
2022-10-19T07:22:04.771Z,9.02
2022-10-19T07:27:06.293Z,11.07
2022-10-19T07:32:07.779Z,8.65
2022-10-19T07:37:09.252Z,48.85
2022-10-19T07:42:10.771Z,8.43
2022-10-19T07:47:12.371Z,7.82
2022-10-19T07:52:13.906Z,8.80
2022-10-19T07:57:15.982Z,6.47
2022-10-19T08:02:18.006Z,7.57
2022-10-19T08:07:19.534Z,7.10
2022-10-19T08:12:21.090Z,8.48
2022-10-19T08:17:22.592Z,6.78
2022-10-19T08:22:24.079Z,7.28
2022-10-19T08:27:25.667Z,6.05
2022-10-19T08:32:27.311Z,6.32
2022-10-19T08:37:40.802Z,7.13
2022-10-19T08:43:02.194Z,6.13
2022-10-19T08:48:14.439Z,7.32
2022-10-19T08:53:19.389Z,6.13
2022-10-19T08:58:27.605Z,5.03
2022-10-19T09:08:59.914Z,6.82
2022-10-19T09:14:13.248Z,7.40
2022-10-19T09:19:26.244Z,7.15
2022-10-19T09:24:36.636Z,7.68
2022-10-19T09:29:48.202Z,6.55
2022-10-19T09:35:02.391Z,4.45
2022-10-19T09:40:05.969Z,4.60
2022-10-19T09:45:16.487Z,5.70
2022-10-19T09:50:26.919Z,6.82
2022-10-19T09:55:44.889Z,5.60
2022-10-19T10:00:50.506Z,7.10
2022-10-19T10:05:52.722Z,4.70
2022-10-19T10:10:58.081Z,3.63
2022-10-19T10:16:01.558Z,5.05
2022-10-19T10:21:25.516Z,4.43
2022-10-19T10:26:28.238Z,3.47
2022-10-19T10:31:30.357Z,4.63
2022-10-19T10:36:32.029Z,3.00
2022-10-19T10:41:38.979Z,4.80
2022-10-19T10:46:50.805Z,3.53
2022-10-19T10:51:56.209Z,3.28
2022-10-19T10:57:13.993Z,3.80
2022-10-19T11:02:40.471Z,2.53
2022-10-19T11:07:45.075Z,6.55
2022-10-19T11:12:51.863Z,2.00
2022-10-19T11:18:16.972Z,3.72
2022-10-19T11:23:33.889Z,2.42
2022-10-19T11:29:03.041Z,3.10
2022-10-19T11:34:16.252Z,2.15
2022-10-19T11:39:40.913Z,1.83
2022-10-19T11:44:51.794Z,1.73
2022-10-19T11:49:53.198Z,1.05
2022-10-19T11:55:48.670Z,3.17
2022-10-19T12:01:02.483Z,2.25
2022-10-19T12:06:20.434Z,3.22
2022-10-19T12:12:00.358Z,1.65
2022-10-19T12:17:06.877Z,3.97
2022-10-19T12:22:15.437Z,4.13
2022-10-19T12:27:18.588Z,2.00
2022-10-19T12:32:23.058Z,0.88
2022-10-19T12:38:18.466Z,1.02
2022-10-19T12:43:27.890Z,2.75
2022-10-19T12:48:29.385Z,2.38
2022-10-19T12:53:38.227Z,2.47
2022-10-19T12:58:51.076Z,2.53
2022-10-19T13:04:12.121Z,2.70
2022-10-19T13:09:27.009Z,3.38
2022-10-19T13:14:50.228Z,1.08
2022-10-19T13:20:14.564Z,2.63
2022-10-19T13:25:16.054Z,3.10
2022-10-19T13:30:35.660Z,2.10
2022-10-19T13:35:37.151Z,2.28
2022-10-19T13:41:00.065Z,1.80
2022-10-19T13:46:13.961Z,1.23
2022-10-19T13:51:27.451Z,2.10
2022-10-19T13:56:42.044Z,2.10
2022-10-19T14:02:21.152Z,1.30
2022-10-19T14:07:26.664Z,3.67
2022-10-19T14:12:29.882Z,1.20
2022-10-19T14:17:42.310Z,1.65
2022-10-19T14:22:44.063Z,3.22
2022-10-19T14:27:46.637Z,2.80
2022-10-19T14:32:48.262Z,2.67
2022-10-19T14:37:50.145Z,1.83
2022-10-19T14:42:51.679Z,3.75
2022-10-19T14:48:01.950Z,6.53
2022-10-19T14:53:42.262Z,3.58
2022-10-19T14:58:54.304Z,3.20
2022-10-19T15:03:56.242Z,3.70
2022-10-19T15:09:04.344Z,2.50
2022-10-19T15:14:08.980Z,2.97
2022-10-19T15:19:26.435Z,2.05
2022-10-19T15:24:28.308Z,2.58
2022-10-19T15:29:29.957Z,2.20
2022-10-19T15:34:31.561Z,4.10
2022-10-19T15:39:41.022Z,1.67
2022-10-19T15:44:44.956Z,2.65
2022-10-19T15:49:46.918Z,2.55
2022-10-19T15:54:53.772Z,3.20
2022-10-19T15:59:57.019Z,2.67
2022-10-19T16:04:58.609Z,1.80
2022-10-19T16:10:00.161Z,3.05
2022-10-19T16:15:01.716Z,1.98
2022-10-19T16:20:03.787Z,5.07
2022-10-19T16:25:05.730Z,2.03
2022-10-19T16:30:07.987Z,2.55
2022-10-19T16:35:10.152Z,2.20
2022-10-19T16:40:11.779Z,3.97
2022-10-19T16:45:13.378Z,2.45
2022-10-19T16:50:15.125Z,5.25
2022-10-19T16:55:16.767Z,3.40
2022-10-19T17:00:18.361Z,1.80
2022-10-19T17:05:19.901Z,4.05
2022-10-19T17:10:21.591Z,4.55
2022-10-19T17:15:41.945Z,3.45
2022-10-19T17:20:44.351Z,4.03
2022-10-19T17:25:49.109Z,4.20
2022-10-19T17:30:52.301Z,2.88
2022-10-19T17:35:53.788Z,3.22
2022-10-19T17:40:55.351Z,6.97
2022-10-19T17:45:59.097Z,4.22
2022-10-19T17:51:06.214Z,2.55
2022-10-19T17:56:08.452Z,3.55
2022-10-19T18:01:11.178Z,3.30
2022-10-19T18:06:18.250Z,3.45
2022-10-19T18:11:22.583Z,3.72
2022-10-19T18:16:30.007Z,6.00
2022-10-19T18:21:34.433Z,5.07
2022-10-19T18:26:36.125Z,4.57
2022-10-19T18:31:38.529Z,5.05
2022-10-19T18:36:40.233Z,4.80
2022-10-19T18:41:41.794Z,5.18
2022-10-19T18:46:43.350Z,5.22
2022-10-19T18:51:50.639Z,4.90
2022-10-19T18:56:55.906Z,3.95
2022-10-19T19:01:57.470Z,4.82
2022-10-19T19:06:59.043Z,3.30
2022-10-19T19:12:01.138Z,6.00
2022-10-19T19:17:02.686Z,3.30
2022-10-19T19:22:08.645Z,4.47
2022-10-19T19:27:10.504Z,4.32
2022-10-19T19:32:12.023Z,4.13
2022-10-19T19:37:14.259Z,6.05
2022-10-19T19:42:16.321Z,3.47
2022-10-19T19:47:19.341Z,7.47
2022-10-19T19:52:20.904Z,10.48
2022-10-19T19:57:22.884Z,5.85
2022-10-19T20:02:24.390Z,4.47
2022-10-19T20:07:27.005Z,3.70
2022-10-19T20:12:29.256Z,5.38
2022-10-19T20:17:30.748Z,4.60
2022-10-19T20:22:32.305Z,4.40
2022-10-19T20:27:37.017Z,5.88
2022-10-19T20:32:38.925Z,6.65
2022-10-19T20:37:40.691Z,3.97
2022-10-19T20:42:43.852Z,4.45
2022-10-19T20:47:45.335Z,4.75
2022-10-19T20:52:46.852Z,6.65
2022-10-19T20:57:48.479Z,4.30
2022-10-19T21:02:50.111Z,5.88
2022-10-19T21:07:52.753Z,5.18
2022-10-19T21:12:54.256Z,8.50
2022-10-19T21:17:55.723Z,4.75
2022-10-19T21:22:58.153Z,6.22
2022-10-19T21:27:59.667Z,3.90
2022-10-19T21:33:01.200Z,4.97
2022-10-19T21:38:02.735Z,6.60
2022-10-19T21:43:04.642Z,6.35
2022-10-19T21:48:06.264Z,6.80
2022-10-19T21:53:07.780Z,5.45
2022-10-19T21:58:09.274Z,6.10
2022-10-19T22:03:10.967Z,4.45
2022-10-19T22:08:12.461Z,4.15
2022-10-19T22:13:14.062Z,6.05
2022-10-19T22:18:15.808Z,4.63
2022-10-19T22:23:17.435Z,6.80
2022-10-19T22:28:18.909Z,5.25
2022-10-19T22:33:20.941Z,4.63
2022-10-19T22:38:23.103Z,4.53
2022-10-19T22:43:24.627Z,5.43
2022-10-19T22:48:26.261Z,5.57
2022-10-19T22:53:27.781Z,3.80
2022-10-19T22:58:29.265Z,3.78
2022-10-19T23:03:30.864Z,3.72
2022-10-19T23:08:32.426Z,5.03
2022-10-19T23:13:33.964Z,5.00
2022-10-19T23:18:37.339Z,3.53
2022-10-19T23:23:39.342Z,3.10
2022-10-19T23:28:43.053Z,3.65
2022-10-19T23:33:44.737Z,3.20
2022-10-19T23:38:48.120Z,4.03
2022-10-19T23:43:49.604Z,3.15
2022-10-19T23:48:51.076Z,6.30
2022-10-19T23:53:53.303Z,6.28
2022-10-19T23:58:55.666Z,3.53
